Time;durP1;ratioP1;P1;durP2;ratioP2;P2;SDS_P1;SDS_P2;PMS_P1;PMS_P2;Temp;Humidity;BMP_temperature;BMP_pressure;BME280_temperature;BME280_humidity;BME280_pressure;Samples;Min_cycle;Max_cycle;Signal;HPM_P1;HPM_P2
2021/09/28 00:01:05;;;;;;;9.10;4.80;;;;;;;7.30;78.21;100307.62;112316;1200;24064;-52
2021/09/28 00:03:34;;;;;;;7.20;4.50;;;;;;;7.22;78.39;100302.69;112420;1193;24134;-52
2021/09/28 00:06:02;;;;;;;8.70;3.90;;;;;;;7.20;78.44;100304.17;112257;1193;138053;-52
2021/09/28 00:08:31;;;;;;;9.80;4.30;;;;;;;7.14;78.65;100307.91;112458;1193;25108;-51
2021/09/28 00:10:59;;;;;;;7.00;4.70;;;;;;;7.08;78.64;100304.69;112341;1200;137616;-52
2021/09/28 00:13:27;;;;;;;9.40;4.30;;;;;;;7.05;78.97;100302.98;112385;1193;25299;-52
2021/09/28 00:15:57;;;;;;;13.50;4.50;;;;;;;7.04;79.17;100303.63;116543;1200;22222;-52
2021/09/28 00:18:26;;;;;;;7.70;4.20;;;;;;;7.02;79.00;100305.05;116615;1199;137389;-52
2021/09/28 00:20:54;;;;;;;8.20;4.40;;;;;;;7.00;79.45;100306.06;116643;1193;22292;-52
2021/09/28 00:23:22;;;;;;;9.30;4.50;;;;;;;6.99;79.47;100305.64;116544;1198;138643;-52
2021/09/28 00:25:50;;;;;;;7.40;4.20;;;;;;;7.01;80.02;100301.17;116596;1199;22294;-55
2021/09/28 00:28:19;;;;;;;10.10;4.40;;;;;;;7.07;80.77;100303.77;116623;1200;22383;-55
2021/09/28 00:30:47;;;;;;;8.20;5.00;;;;;;;7.14;81.22;100304.91;116518;1200;137261;-55
2021/09/28 00:33:15;;;;;;;11.00;5.50;;;;;;;7.22;81.57;100302.86;116670;1199;23028;-55
2021/09/28 00:36:09;;;;;;;8.00;4.80;;;;;;;7.31;81.85;100303.06;116524;1193;137844;-55
2021/09/28 00:38:38;;;;;;;14.20;5.60;;;;;;;7.37;82.25;100299.47;116655;1199;22370;-55
2021/09/28 00:41:06;;;;;;;10.00;5.80;;;;;;;7.44;82.26;100300.14;116556;1199;137987;-55
2021/09/28 00:43:48;;;;;;;11.40;6.60;;;;;;;7.50;82.47;100297.60;116644;1199;23512;-55
2021/09/28 00:46:16;;;;;;;7.50;5.20;;;;;;;7.56;82.72;100298.39;116639;1200;22325;-55
2021/09/28 00:48:44;;;;;;;9.30;4.60;;;;;;;7.62;82.36;100300.98;116561;1200;137318;-55
2021/09/28 00:51:14;;;;;;;6.90;4.40;;;;;;;7.64;81.83;100302.35;116607;1200;22313;-55
2021/09/28 00:53:42;;;;;;;7.60;4.20;;;;;;;7.62;81.12;100303.20;116608;1199;137882;-54
2021/09/28 00:56:17;;;;;;;8.20;4.50;;;;;;;7.58;80.64;100301.39;116752;1199;22344;-55
2021/09/28 00:58:45;;;;;;;8.30;4.40;;;;;;;7.52;80.02;100300.46;116582;1199;138052;-55
2021/09/28 01:01:14;;;;;;;7.50;4.30;;;;;;;7.46;79.75;100301.35;116648;1193;23192;-55
2021/09/28 01:03:43;;;;;;;7.10;4.10;;;;;;;7.39;79.49;100303.71;116741;1199;22374;-55
2021/09/28 01:06:12;;;;;;;10.10;4.40;;;;;;;7.33;79.32;100301.77;116622;1200;138607;-55
2021/09/28 01:08:40;;;;;;;8.90;4.80;;;;;;;7.28;79.12;100302.83;116734;1199;22326;-54
2021/09/28 01:11:08;;;;;;;6.80;3.90;;;;;;;7.21;78.86;100301.57;116505;1196;138002;-54
2021/09/28 01:13:56;;;;;;;6.90;4.20;;;;;;;7.15;78.84;100302.53;116701;1200;22157;-54
2021/09/28 01:16:24;;;;;;;6.50;4.90;;;;;;;7.10;78.77;100302.45;116679;1200;22217;-55
2021/09/28 01:18:53;;;;;;;7.70;4.40;;;;;;;7.04;78.72;100300.96;116602;1199;138178;-54
2021/09/28 01:21:22;;;;;;;7.30;5.00;;;;;;;6.99;78.69;100304.77;116680;1200;23405;-54
2021/09/28 01:23:50;;;;;;;8.10;5.20;;;;;;;6.95;78.58;100304.73;116554;1200;138531;-54
2021/09/28 01:26:23;;;;;;;9.40;5.10;;;;;;;6.90;78.36;100312.37;114693;1199;23236;-54
2021/09/28 01:28:53;;;;;;;10.60;5.60;;;;;;;6.84;78.57;100315.92;112303;1199;138941;-54
2021/09/28 01:31:23;;;;;;;9.90;5.50;;;;;;;6.79;78.67;100315.02;112502;1192;25048;-54
2021/09/28 01:33:55;;;;;;;9.70;5.10;;;;;;;6.75;78.69;100314.46;112392;1199;22537;-54
2021/09/28 01:36:23;;;;;;;9.20;4.90;;;;;;;6.70;78.79;100314.22;116556;1199;137535;-54
2021/09/28 01:38:51;;;;;;;10.50;5.40;;;;;;;6.67;78.83;100318.14;116731;1199;22350;-54
2021/09/28 01:41:19;;;;;;;21.80;5.90;;;;;;;6.62;78.82;100313.92;116671;1200;138436;-55
2021/09/28 01:43:47;;;;;;;6.70;4.30;;;;;;;6.57;78.56;100312.97;116718;1199;22202;-55
2021/09/28 01:46:15;;;;;;;10.40;5.90;;;;;;;6.53;78.98;100312.48;116685;1200;22322;-55
2021/09/28 01:48:49;;;;;;;9.50;4.70;;;;;;;6.48;79.01;100310.34;116568;1200;137661;-55
2021/09/28 01:51:18;;;;;;;11.40;4.90;;;;;;;6.43;79.16;100312.30;116546;1200;23231;-56
2021/09/28 01:53:52;;;;;;;7.90;5.10;;;;;;;6.38;79.35;100310.72;116500;1200;138209;-55
2021/09/28 01:56:21;;;;;;;9.40;5.70;;;;;;;6.35;79.76;100313.30;116790;1200;22362;-56
2021/09/28 01:58:49;;;;;;;12.90;5.50;;;;;;;6.37;80.50;100315.42;116615;1199;138144;-56
2021/09/28 02:01:17;;;;;;;5.90;4.70;;;;;;;6.46;81.54;100316.00;116762;1199;22342;-55
2021/09/28 02:03:46;;;;;;;7.50;4.70;;;;;;;6.57;82.49;100314.64;116756;1195;22189;-56
2021/09/28 02:06:24;;;;;;;9.10;5.00;;;;;;;6.69;83.19;100320.89;116612;1199;138746;-56
2021/09/28 02:08:52;;;;;;;9.30;5.20;;;;;;;6.81;83.75;100317.72;116744;1199;22323;-56
2021/09/28 02:11:20;;;;;;;6.80;4.80;;;;;;;6.91;83.89;100316.19;116602;1199;137752;-56
2021/09/28 02:13:51;;;;;;;6.30;4.50;;;;;;;7.00;84.30;100317.64;116626;1200;22268;-56
2021/09/28 02:16:38;;;;;;;5.50;4.30;;;;;;;7.08;84.28;100316.52;116587;1200;137968;-56
2021/09/28 02:19:07;;;;;;;5.80;4.40;;;;;;;7.12;84.14;100313.80;116603;1200;23297;-56
2021/09/28 02:21:36;;;;;;;7.80;4.10;;;;;;;7.12;83.37;100311.37;116665;1200;22307;-56
2021/09/28 02:24:06;;;;;;;6.00;4.10;;;;;;;7.08;82.82;100310.64;116654;1199;137683;-56
2021/09/28 02:26:34;;;;;;;5.30;4.30;;;;;;;7.04;82.27;100312.46;114274;1185;25130;-55
2021/09/28 02:29:03;;;;;;;9.20;4.20;;;;;;;7.01;82.30;100316.35;112338;1199;139421;-55
2021/09/28 02:31:32;;;;;;;5.00;3.80;;;;;;;7.01;82.54;100321.19;112353;1184;25131;-55
2021/09/28 02:34:00;;;;;;;5.80;4.10;;;;;;;7.00;82.48;100319.02;112404;1200;22471;-55
2021/09/28 02:36:28;;;;;;;5.20;4.20;;;;;;;6.99;82.49;100320.98;116450;1199;137742;-55
2021/09/28 02:38:56;;;;;;;8.10;5.20;;;;;;;6.99;82.37;100326.27;116762;1199;22255;-56
2021/09/28 02:41:25;;;;;;;6.40;4.80;;;;;;;6.99;82.49;100327.53;116660;1199;137711;-56
2021/09/28 02:43:53;;;;;;;7.10;5.20;;;;;;;7.01;83.09;100326.73;116638;1201;22338;-56
2021/09/28 02:46:21;;;;;;;8.00;5.20;;;;;;;7.10;83.64;100330.27;116775;1199;22459;-56
2021/09/28 02:48:49;;;;;;;9.40;5.60;;;;;;;7.17;84.06;100329.88;116647;1199;138347;-56
2021/09/28 02:51:19;;;;;;;9.60;5.40;;;;;;;7.28;84.79;100334.27;116803;1199;22348;-56
2021/09/28 02:53:48;;;;;;;6.00;5.20;;;;;;;7.35;84.76;100334.60;116687;1199;137714;-56
2021/09/28 02:56:16;;;;;;;7.20;5.20;;;;;;;7.43;85.09;100335.40;116730;1199;23233;-56
2021/09/28 02:58:45;;;;;;;7.40;5.50;;;;;;;7.50;85.10;100339.94;116517;1197;138114;-56
2021/09/28 03:01:14;;;;;;;7.40;5.80;;;;;;;7.57;85.24;100341.16;116759;1199;23670;-56
2021/09/28 03:03:42;;;;;;;7.10;5.50;;;;;;;7.62;85.46;100339.67;116772;1199;22263;-56
2021/09/28 03:06:10;;;;;;;8.00;6.40;;;;;;;7.69;85.42;100341.56;116663;1199;138861;-56
2021/09/28 03:08:39;;;;;;;9.00;5.70;;;;;;;7.75;85.43;100344.83;116797;1200;22360;-55
2021/09/28 03:11:09;;;;;;;10.10;5.70;;;;;;;7.81;85.52;100344.11;116649;1200;138142;-55
2021/09/28 03:13:37;;;;;;;9.20;5.70;;;;;;;7.87;85.59;100340.40;116782;1199;22721;-54
2021/09/28 03:16:25;;;;;;;7.00;6.30;;;;;;;7.91;85.40;100344.34;116779;1200;22387;-55
2021/09/28 03:18:53;;;;;;;9.40;5.90;;;;;;;7.95;85.34;100341.46;116554;1200;137903;-54
2021/09/28 03:21:21;;;;;;;8.30;5.90;;;;;;;7.95;85.21;100345.38;116728;1199;22369;-55
2021/09/28 03:23:49;;;;;;;7.10;5.20;;;;;;;7.96;85.22;100346.54;116499;1199;138546;-54
2021/09/28 03:26:17;;;;;;;7.30;5.50;;;;;;;7.96;85.23;100348.29;116794;1199;22815;-55
2021/09/28 03:28:45;;;;;;;7.00;5.50;;;;;;;7.96;85.17;100350.89;116615;1199;139166;-54
2021/09/28 03:31:13;;;;;;;7.00;5.20;;;;;;;7.96;85.39;100350.55;116776;1200;22431;-57
2021/09/28 03:33:41;;;;;;;8.70;5.10;;;;;;;7.96;85.30;100353.17;116811;1199;23130;-57
2021/09/28 03:36:09;;;;;;;8.70;5.70;;;;;;;7.96;85.27;100352.09;114920;1193;137784;-56
2021/09/28 03:38:38;;;;;;;9.10;6.00;;;;;;;7.95;85.10;100351.92;112522;1199;22447;-56
2021/09/28 03:41:07;;;;;;;6.40;5.60;;;;;;;7.94;85.19;100356.40;116679;1199;137819;-56
2021/09/28 03:43:35;;;;;;;11.60;6.00;;;;;;;7.95;85.21;100358.83;116780;1192;22441;-56
2021/09/28 03:46:04;;;;;;;8.90;6.00;;;;;;;7.95;85.21;100363.16;116787;1199;22400;-56
2021/09/28 03:48:33;;;;;;;13.50;6.20;;;;;;;7.94;85.02;100360.33;116390;1200;139176;-56
2021/09/28 03:51:01;;;;;;;6.80;5.60;;;;;;;7.93;84.83;100358.57;116771;1199;22335;-56
2021/09/28 03:53:29;;;;;;;8.90;5.70;;;;;;;7.91;84.72;100360.63;116614;1200;137990;-56
2021/09/28 03:55:58;;;;;;;9.50;5.30;;;;;;;7.90;84.74;100361.34;116632;1194;22346;-57
2021/09/28 03:58:26;;;;;;;9.20;5.70;;;;;;;7.88;84.72;100363.86;116718;1200;23157;-56
2021/09/28 04:00:54;;;;;;;8.60;5.20;;;;;;;7.86;84.72;100357.77;116640;1200;137653;-56
2021/09/28 04:03:24;;;;;;;7.30;6.50;;;;;;;7.85;84.54;100362.29;116779;1199;22205;-56
2021/09/28 04:05:53;;;;;;;11.20;5.30;;;;;;;7.83;84.31;100358.88;116650;1199;138273;-56
2021/09/28 04:08:20;;;;;;;7.70;5.60;;;;;;;7.81;84.49;100362.59;116666;1200;22326;-57
2021/09/28 04:11:08;;;;;;;12.40;6.80;;;;;;;7.79;84.42;100366.08;116514;1200;138972;-56
2021/09/28 04:13:40;;;;;;;6.80;5.80;;;;;;;7.77;84.33;100362.77;116743;1199;22344;-56
2021/09/28 04:16:08;;;;;;;11.50;6.50;;;;;;;7.76;84.43;100359.85;116676;1200;22196;-56
2021/09/28 04:18:36;;;;;;;7.00;5.70;;;;;;;7.73;84.45;100358.20;116663;1200;138876;-57
2021/09/28 04:21:05;;;;;;;15.40;6.30;;;;;;;7.72;84.38;100361.20;116696;1200;22319;-57
2021/09/28 04:23:33;;;;;;;8.40;5.90;;;;;;;7.71;84.37;100365.27;116479;1200;138005;-57
2021/09/28 04:26:02;;;;;;;9.40;6.60;;;;;;;7.71;84.44;100363.52;116759;1200;22205;-56
2021/09/28 04:28:30;;;;;;;9.80;6.50;;;;;;;7.71;84.38;100361.88;116814;1199;23171;-56
2021/09/28 04:30:59;;;;;;;9.60;6.80;;;;;;;7.68;84.27;100363.35;116656;1199;138587;-57
2021/09/28 04:33:28;;;;;;;8.40;7.10;;;;;;;7.66;84.17;100356.64;116851;1199;22356;-57
2021/09/28 04:35:56;;;;;;;8.90;6.00;;;;;;;7.66;84.21;100360.86;116520;1200;140036;-56
2021/09/28 04:38:24;;;;;;;8.10;6.30;;;;;;;7.66;84.28;100361.14;116732;1199;22440;-56
2021/09/28 04:40:53;;;;;;;10.90;6.80;;;;;;;7.66;84.32;100365.16;116485;1200;140145;-55
2021/09/28 04:43:21;;;;;;;12.70;6.70;;;;;;;7.67;84.48;100365.03;116815;1200;22581;-55
2021/09/28 04:45:49;;;;;;;10.10;6.50;;;;;;;7.69;84.46;100370.31;116583;1200;22266;-56
2021/09/28 04:48:17;;;;;;;12.50;7.10;;;;;;;7.70;84.50;100367.48;116645;1199;138339;-57
2021/09/28 04:50:46;;;;;;;10.60;6.20;;;;;;;7.71;84.54;100370.14;116836;1199;23108;-57
2021/09/28 04:53:15;;;;;;;12.10;6.50;;;;;;;7.74;84.74;100372.71;116625;1199;138721;-57
2021/09/28 04:55:43;;;;;;;12.00;7.30;;;;;;;7.77;84.87;100374.25;116786;1195;22464;-56
2021/09/28 04:58:12;;;;;;;10.70;7.70;;;;;;;7.79;85.01;100378.02;116792;1199;22359;-56
2021/09/28 05:00:40;;;;;;;10.30;7.30;;;;;;;7.84;85.13;100377.44;116651;1199;138353;-56
2021/09/28 05:03:09;;;;;;;12.50;8.80;;;;;;;7.88;85.05;100381.60;116825;1200;22390;-56
2021/09/28 05:05:37;;;;;;;10.00;7.30;;;;;;;7.91;85.18;100384.41;116628;1199;139017;-56
2021/09/28 05:08:08;;;;;;;11.20;7.60;;;;;;;7.96;85.10;100390.30;116775;1199;22310;-56
2021/09/28 05:10:36;;;;;;;9.60;7.20;;;;;;;7.98;85.13;100390.58;116682;1199;139191;-57
2021/09/28 05:13:07;;;;;;;9.30;7.50;;;;;;;8.00;85.09;100390.80;116771;1186;22312;-56
2021/09/28 05:15:36;;;;;;;14.20;8.10;;;;;;;8.02;85.16;100387.13;116009;1199;23793;-56
2021/09/28 05:18:04;;;;;;;11.20;7.20;;;;;;;8.05;85.31;100388.95;112396;1199;138819;-56
2021/09/28 05:20:34;;;;;;;12.60;7.60;;;;;;;8.10;85.27;100394.07;112361;1193;22941;-56
2021/09/28 05:23:03;;;;;;;12.10;7.40;;;;;;;8.13;85.20;100393.10;116377;1200;138688;-56
2021/09/28 05:25:31;;;;;;;10.00;6.80;;;;;;;8.16;85.25;100393.20;116829;1199;23070;-56
2021/09/28 05:28:00;;;;;;;9.40;7.00;;;;;;;8.21;85.40;100395.75;116755;1200;22360;-56
2021/09/28 05:30:28;;;;;;;9.50;7.70;;;;;;;8.24;85.33;100395.79;116718;1199;138121;-56
2021/09/28 05:32:55;;;;;;;11.30;7.60;;;;;;;8.28;85.33;100398.70;116737;1199;22232;-56
2021/09/28 05:35:24;;;;;;;10.00;7.40;;;;;;;8.35;85.43;100402.88;116619;1199;139077;-55
2021/09/28 05:37:53;;;;;;;14.70;7.90;;;;;;;8.41;85.31;100404.59;116750;1199;22426;-56
2021/09/28 05:40:21;;;;;;;16.80;7.80;;;;;;;8.46;85.33;100403.46;116715;1200;23022;-55
2021/09/28 05:42:48;;;;;;;12.40;8.10;;;;;;;8.52;85.15;100408.66;116492;1201;139024;-56
2021/09/28 05:45:17;;;;;;;12.20;8.00;;;;;;;8.56;85.03;100408.88;116853;1199;22318;-57
2021/09/28 05:47:47;;;;;;;11.20;8.00;;;;;;;8.59;84.75;100407.06;116655;1200;138795;-57
2021/09/28 05:50:16;;;;;;;13.40;8.70;;;;;;;8.61;84.64;100402.94;116701;1199;22255;-56
2021/09/28 05:52:45;;;;;;;9.70;7.40;;;;;;;8.67;84.62;100407.30;116612;1199;138635;-56
2021/09/28 05:55:13;;;;;;;16.20;9.30;;;;;;;8.75;84.60;100414.14;116693;1200;22319;-56
2021/09/28 05:57:42;;;;;;;12.10;8.00;;;;;;;8.81;84.47;100413.73;116754;1200;22391;-56
2021/09/28 06:00:10;;;;;;;15.40;8.10;;;;;;;8.90;84.18;100416.33;116687;1199;138197;-56
2021/09/28 06:02:42;;;;;;;11.80;8.30;;;;;;;8.96;84.15;100421.48;116705;1199;22301;-56
2021/09/28 06:05:10;;;;;;;10.40;7.20;;;;;;;9.03;83.94;100418.70;116659;1200;138203;-56
2021/09/28 06:07:39;;;;;;;16.60;7.60;;;;;;;9.09;83.75;100417.70;116641;1194;23000;-56
2021/09/28 06:10:08;;;;;;;16.90;7.20;;;;;;;9.16;83.65;100418.83;116625;1200;22255;-57
2021/09/28 06:12:56;;;;;;;13.70;7.10;;;;;;;9.26;83.22;100413.19;116497;1199;138824;-56
2021/09/28 06:15:37;;;;;;;15.60;7.40;;;;;;;9.29;82.77;100411.86;116796;1199;22314;-56
2021/09/28 06:18:06;;;;;;;11.20;7.00;;;;;;;9.30;82.50;100413.36;116706;1200;137921;-56
2021/09/28 06:20:34;;;;;;;12.50;6.80;;;;;;;9.32;82.43;100411.13;116661;1199;22386;-57
2021/09/28 06:23:03;;;;;;;13.30;7.90;;;;;;;9.33;82.08;100411.36;116672;1199;138198;-57
2021/09/28 06:25:31;;;;;;;14.30;7.30;;;;;;;9.31;81.72;100415.19;116779;1199;23037;-57
2021/09/28 06:28:03;;;;;;;15.90;7.70;;;;;;;9.29;81.69;100413.87;116732;1193;23009;-57
2021/09/28 06:30:32;;;;;;;12.00;7.50;;;;;;;9.30;81.73;100421.98;116509;1200;138145;-57
2021/09/28 06:33:00;;;;;;;13.70;6.90;;;;;;;9.30;81.69;100424.57;116653;1200;22386;-56
2021/09/28 06:35:28;;;;;;;11.80;7.50;;;;;;;9.32;81.67;100427.60;116470;1200;138182;-56
2021/09/28 06:37:56;;;;;;;15.40;7.30;;;;;;;9.36;81.52;100425.55;116727;1199;22359;-56
2021/09/28 06:40:25;;;;;;;19.20;7.60;;;;;;;9.40;81.60;100422.59;116726;1199;22294;-56
2021/09/28 06:42:53;;;;;;;14.00;6.80;;;;;;;9.44;81.37;100422.30;116504;1200;137712;-56
2021/09/28 06:45:23;;;;;;;13.60;8.40;;;;;;;9.50;81.27;100429.17;116795;1198;22398;-56
2021/09/28 06:47:51;;;;;;;12.50;6.80;;;;;;;9.55;81.12;100425.76;116683;1199;137851;-56
2021/09/28 06:50:19;;;;;;;12.50;7.60;;;;;;;9.59;80.91;100431.70;116613;1200;22923;-57
2021/09/28 06:52:47;;;;;;;14.40;8.10;;;;;;;9.60;80.66;100429.42;116673;1200;137947;-58
2021/09/28 06:55:16;;;;;;;16.90;7.70;;;;;;;9.61;80.56;100432.01;116625;1200;22352;-58
2021/09/28 06:57:45;;;;;;;19.10;8.10;;;;;;;9.62;80.40;100437.33;116750;1194;22356;-58
2021/09/28 07:00:13;;;;;;;14.20;7.30;;;;;;;9.62;80.44;100436.90;116652;1199;138090;-57
2021/09/28 07:02:43;;;;;;;14.00;7.50;;;;;;;9.64;80.33;100440.10;116724;1199;22278;-58
2021/09/28 07:05:13;;;;;;;18.70;8.10;;;;;;;9.68;80.59;100447.44;116568;1200;138325;-57
2021/09/28 07:07:59;;;;;;;10.80;6.80;;;;;;;9.71;80.12;100446.95;116779;1199;22379;-57
2021/09/28 07:10:29;;;;;;;13.50;7.90;;;;;;;9.73;80.03;100445.15;116656;1200;23099;-57
2021/09/28 07:13:11;;;;;;;16.50;7.50;;;;;;;9.77;80.02;100449.89;116628;1199;138040;-57
2021/09/28 07:15:39;;;;;;;14.00;7.50;;;;;;;9.82;80.10;100454.00;115363;1200;22422;-56
2021/09/28 07:18:09;;;;;;;14.30;7.30;;;;;;;9.87;79.84;100455.77;116410;1187;138375;-57
2021/09/28 07:20:37;;;;;;;13.20;7.20;;;;;;;9.92;79.95;100458.77;116753;1199;22336;-57
2021/09/28 07:23:05;;;;;;;28.80;9.20;;;;;;;9.98;79.68;100457.03;116644;1200;139175;-57
2021/09/28 07:25:34;;;;;;;21.20;7.80;;;;;;;10.03;79.52;100454.29;116796;1199;23479;-58
2021/09/28 07:28:03;;;;;;;15.60;9.10;;;;;;;10.09;78.94;100457.80;116667;1199;22433;-57
2021/09/28 07:30:33;;;;;;;13.10;7.70;;;;;;;10.13;78.74;100457.52;116596;1200;137939;-58
2021/09/28 07:33:02;;;;;;;11.70;7.80;;;;;;;10.16;78.24;100461.13;116731;1199;22289;-58
2021/09/28 07:35:30;;;;;;;14.10;6.80;;;;;;;10.19;77.86;100464.39;116635;1199;139339;-58
2021/09/28 07:37:58;;;;;;;9.90;6.00;;;;;;;10.22;78.01;100462.41;116713;1196;22309;-57
2021/09/28 07:40:27;;;;;;;17.30;7.40;;;;;;;10.27;77.74;100461.27;116720;1199;23471;-57
2021/09/28 07:42:56;;;;;;;14.10;7.90;;;;;;;10.34;77.89;100469.04;116605;1199;139364;-58
2021/09/28 07:45:24;;;;;;;13.60;8.10;;;;;;;10.38;77.56;100469.31;116804;1199;23515;-57
2021/09/28 07:47:53;;;;;;;11.70;6.80;;;;;;;10.40;77.52;100470.17;116453;1201;138011;-57
2021/09/28 07:50:21;;;;;;;16.50;6.60;;;;;;;10.44;77.33;100473.80;116691;1199;22327;-57
2021/09/28 07:52:49;;;;;;;15.20;7.30;;;;;;;10.42;76.84;100476.98;116605;1199;138323;-57
2021/09/28 07:55:17;;;;;;;14.30;6.70;;;;;;;10.39;76.75;100474.60;116687;1198;22342;-57
2021/09/28 07:57:45;;;;;;;10.60;6.70;;;;;;;10.38;76.96;100478.36;116623;1199;22235;-57
2021/09/28 08:00:14;;;;;;;9.90;6.80;;;;;;;10.39;76.74;100477.91;116641;1199;138185;-57
2021/09/28 08:02:42;;;;;;;13.30;6.70;;;;;;;10.43;76.70;100483.38;116619;1200;23345;-56
2021/09/28 08:05:11;;;;;;;14.90;7.50;;;;;;;10.47;76.55;100484.67;116632;1199;138286;-56
2021/09/28 08:07:39;;;;;;;13.70;6.60;;;;;;;10.51;76.41;100482.73;116796;1200;22314;-56
2021/09/28 08:10:08;;;;;;;12.20;7.30;;;;;;;10.54;76.26;100483.61;116663;1199;24739;-56
2021/09/28 08:12:52;;;;;;;24.80;7.10;;;;;;;10.56;75.73;100481.30;116662;1199;139131;-56
2021/09/28 08:15:40;;;;;;;;;;;;;;;10.56;75.49;100479.39;116767;1200;23019;-56
2021/09/28 08:18:08;;;;;;;10.00;6.40;;;;;;;10.55;75.86;100480.40;116625;1199;124571;-56
2021/09/28 08:20:37;;;;;;;12.50;7.10;;;;;;;10.56;75.98;100481.81;116769;1199;22229;-56
2021/09/28 08:23:05;;;;;;;10.10;6.90;;;;;;;10.62;75.99;100484.84;116581;1199;138354;-56
2021/09/28 08:25:37;;;;;;;15.00;6.90;;;;;;;10.67;76.10;100483.66;116635;1200;22773;-56
2021/09/28 08:30:55;;;;;;;12.90;7.10;;;;;;;10.68;75.23;100485.41;116594;1200;138113;-56
2021/09/28 08:33:23;;;;;;;15.00;7.20;;;;;;;10.65;75.33;100486.23;116738;1199;22229;-57
2021/09/28 08:35:51;;;;;;;16.50;7.90;;;;;;;10.66;75.32;100486.42;116608;1199;138236;-57
2021/09/28 08:38:20;;;;;;;14.30;6.90;;;;;;;10.69;75.21;100485.93;116762;1199;22375;-57
2021/09/28 08:40:48;;;;;;;14.40;7.00;;;;;;;10.72;74.72;100491.13;116561;1199;138654;-58
2021/09/28 08:43:17;;;;;;;15.10;6.30;;;;;;;10.73;74.80;100491.31;116750;1200;24439;-58
2021/09/28 08:45:45;;;;;;;9.20;6.10;;;;;;;10.74;75.08;100488.45;116728;1199;22437;-58
2021/09/28 08:48:13;;;;;;;10.10;6.30;;;;;;;10.75;74.60;100485.70;116636;1199;138912;-58
2021/09/28 08:50:46;;;;;;;19.30;6.90;;;;;;;10.80;74.61;100488.95;116800;1193;22301;-56
2021/09/28 08:53:15;;;;;;;12.00;6.80;;;;;;;10.83;74.41;100490.98;116648;1200;138449;-56
2021/09/28 08:55:44;;;;;;;19.30;7.50;;;;;;;10.83;74.05;100489.83;116675;1200;22350;-53
2021/09/28 08:58:13;;;;;;;13.00;6.90;;;;;;;10.82;74.14;100490.18;116664;1200;22611;-53
2021/09/28 09:00:43;;;;;;;11.50;6.90;;;;;;;10.86;74.05;100491.97;116601;1199;138128;-53
2021/09/28 09:03:25;;;;;;;13.20;7.50;;;;;;;10.88;73.99;100493.48;116687;1200;23169;-54
2021/09/28 09:06:04;;;;;;;16.80;6.70;;;;;;;10.91;73.93;100491.34;116608;1199;140941;-54
2021/09/28 09:08:34;;;;;;;19.70;7.40;;;;;;;10.93;73.77;100492.09;116754;1199;23172;-54
2021/09/28 09:11:04;;;;;;;14.90;6.80;;;;;;;10.99;73.89;100493.13;116583;1199;138090;-54
2021/09/28 09:13:38;;;;;;;13.00;6.40;;;;;;;11.08;73.72;100489.49;116736;1200;22327;-54
2021/09/28 09:16:08;;;;;;;15.60;6.20;;;;;;;11.21;72.98;100490.05;116719;1200;22719;-53
2021/09/28 09:18:36;;;;;;;17.00;7.10;;;;;;;11.33;72.53;100488.80;116639;1200;138127;-54
2021/09/28 09:21:05;;;;;;;24.10;7.90;;;;;;;11.43;71.89;100491.35;116689;1199;22314;-54
2021/09/28 09:23:37;;;;;;;24.10;7.00;;;;;;;11.48;71.54;100492.84;116557;1199;139124;-54
2021/09/28 09:26:22;;;;;;;12.20;6.10;;;;;;;11.54;72.07;100491.71;116745;1199;22243;-56
2021/09/28 09:28:55;;;;;;;15.30;6.50;;;;;;;11.63;71.32;100494.21;116558;1197;138294;-56
2021/09/28 09:31:32;;;;;;;22.50;6.60;;;;;;;11.72;71.21;100493.66;116710;1200;22649;-56
2021/09/28 09:34:11;;;;;;;11.50;5.60;;;;;;;11.82;71.03;100492.22;116809;1199;22269;-56
2021/09/28 09:36:40;;;;;;;16.30;6.10;;;;;;;11.94;71.13;100501.96;116571;1199;138966;-58
2021/09/28 09:39:09;;;;;;;23.50;6.20;;;;;;;12.02;70.23;100498.29;116607;1199;22320;-58
2021/09/28 09:41:40;;;;;;;17.80;6.80;;;;;;;12.03;69.63;100502.02;116525;1200;137820;-58
2021/09/28 09:44:09;;;;;;;16.60;6.80;;;;;;;12.00;69.44;100496.94;116676;1200;22304;-57
2021/09/28 09:46:45;;;;;;;22.90;6.80;;;;;;;12.00;69.86;100497.58;116684;1199;23449;-58
2021/09/28 09:49:16;;;;;;;17.50;5.90;;;;;;;12.00;69.72;100492.03;116600;1199;138447;-56
2021/09/28 09:51:52;;;;;;;22.00;6.70;;;;;;;12.04;70.06;100495.05;116690;1199;23152;-56
2021/09/28 09:54:36;;;;;;;16.20;6.50;;;;;;;12.13;70.02;100492.76;116568;1199;138436;-56
2021/09/28 09:57:06;;;;;;;16.90;5.70;;;;;;;12.23;69.39;100490.27;116650;1200;22429;-57
2021/09/28 09:59:35;;;;;;;26.20;6.30;;;;;;;12.28;68.89;100491.17;116649;1199;138325;-56
2021/09/28 10:02:04;;;;;;;37.30;7.10;;;;;;;12.32;68.91;100496.30;116739;1199;22443;-56
2021/09/28 10:04:33;;;;;;;24.40;6.10;;;;;;;12.32;67.89;100498.54;116724;1199;22984;-56
2021/09/28 10:07:04;;;;;;;17.00;5.40;;;;;;;12.23;67.93;100497.70;113273;1201;138851;-56
2021/09/28 10:10:36;;;;;;;25.00;6.70;;;;;;;12.16;67.69;100502.64;111179;1209;546549;-55
2021/09/28 10:13:05;;;;;;;25.00;6.90;;;;;;;12.07;67.86;100506.98;112065;1196;136835;-55
2021/09/28 10:16:32;;;;;;;23.80;6.80;;;;;;;12.02;68.29;100505.81;116112;1203;24434;-56
2021/09/28 10:19:01;;;;;;;21.10;6.30;;;;;;;11.97;68.23;100502.27;116165;1204;141039;-55
2021/09/28 10:21:40;;;;;;;18.50;6.90;;;;;;;11.92;68.56;100502.20;116208;1204;22254;-56
2021/09/28 10:24:17;;;;;;;17.70;5.60;;;;;;;11.91;68.69;100507.64;116090;1196;138277;-56
2021/09/28 10:26:46;;;;;;;16.70;6.00;;;;;;;11.89;69.06;100508.74;117046;1198;22336;-56
2021/09/28 10:29:47;;;;;;;14.70;6.20;;;;;;;11.87;69.26;100505.14;116861;1197;138494;-55
2021/09/28 10:32:24;;;;;;;18.70;6.00;;;;;;;11.82;69.72;100514.07;116577;1200;22338;-56
2021/09/28 10:35:01;;;;;;;15.50;7.70;;;;;;;11.76;69.69;100513.88;116429;1200;138116;-57
2021/09/28 10:37:42;;;;;;;23.60;6.80;;;;;;;11.72;70.14;100516.38;116551;1200;22688;-56
2021/09/28 10:40:10;;;;;;;20.30;5.80;;;;;;;11.68;70.34;100515.98;116535;1200;23264;-56
2021/09/28 10:43:02;;;;;;;17.90;6.20;;;;;;;11.65;70.33;100516.02;116483;1200;138629;-57
2021/09/28 10:45:31;;;;;;;14.80;5.00;;;;;;;11.63;70.69;100517.73;116584;1200;22328;-56
2021/09/28 10:48:11;;;;;;;30.20;7.70;;;;;;;11.62;70.58;100521.41;116426;1195;138346;-56
2021/09/28 10:50:40;;;;;;;20.80;5.90;;;;;;;11.56;70.83;100519.16;116602;1200;23029;-56
2021/09/28 10:53:20;;;;;;;25.50;6.90;;;;;;;11.52;70.99;100517.17;116533;1201;138314;-57
2021/09/28 10:56:13;;;;;;;18.90;7.40;;;;;;;11.48;71.13;100512.16;116590;1200;22255;-56
2021/09/28 10:59:02;;;;;;;20.70;6.30;;;;;;;11.46;71.11;100512.23;116601;1201;23297;-57
2021/09/28 11:01:32;;;;;;;25.90;8.40;;;;;;;11.45;71.33;100518.85;116443;1201;138725;-56
2021/09/28 11:04:10;;;;;;;19.00;6.40;;;;;;;11.45;71.42;100516.51;116635;1201;22313;-56
2021/09/28 11:06:53;;;;;;;17.70;5.90;;;;;;;11.46;71.44;100519.80;116355;1195;138200;-56
2021/09/28 11:09:23;;;;;;;17.30;5.90;;;;;;;11.45;71.61;100524.09;116841;1199;23198;-57
2021/09/28 11:11:55;;;;;;;17.60;5.40;;;;;;;11.43;71.64;100520.17;116804;1197;138022;-57
2021/09/28 11:14:39;;;;;;;29.90;6.60;;;;;;;11.43;72.14;100527.54;116895;1198;22332;-57
2021/09/28 11:17:13;;;;;;;16.60;5.90;;;;;;;11.43;72.11;100527.27;116918;1198;23365;-57
2021/09/28 11:19:42;;;;;;;32.00;7.70;;;;;;;11.43;72.13;100523.88;116800;1199;138796;-57
2021/09/28 11:22:15;;;;;;;16.80;6.50;;;;;;;11.42;72.37;100526.33;116864;1192;22338;-56
2021/09/28 11:24:44;;;;;;;26.60;7.60;;;;;;;11.42;72.52;100523.14;116746;1199;137860;-56
2021/09/28 11:27:12;;;;;;;21.80;6.90;;;;;;;11.42;72.71;100528.12;116855;1198;22893;-57
2021/09/28 11:29:41;;;;;;;44.80;8.00;;;;;;;11.45;72.70;100522.67;116737;1199;138207;-55
2021/09/28 11:32:10;;;;;;;25.80;7.10;;;;;;;11.47;72.76;100525.95;116874;1198;22370;-56
2021/09/28 11:34:40;;;;;;;17.70;5.30;;;;;;;11.51;72.76;100526.85;116904;1192;22233;-56